createdAt,value
2023-05-17T00:00:22.870Z,99090.16
2023-05-17T00:03:10.969Z,99079.03
2023-05-17T00:05:59.027Z,99063.59
2023-05-17T00:08:47.015Z,99070.47
2023-05-17T00:11:35.104Z,99070.81
2023-05-17T00:14:23.138Z,99061.97
2023-05-17T00:17:12.469Z,99061.75
2023-05-17T00:20:00.463Z,99061.97
2023-05-17T00:22:48.402Z,99063.31
2023-05-17T00:25:36.617Z,99046.97
2023-05-17T00:28:24.785Z,99077.31
2023-05-17T00:31:12.865Z,99064.88
2023-05-17T00:34:02.270Z,99065.34
2023-05-17T00:36:51.373Z,99063.53
2023-05-17T00:39:39.380Z,99001.22
2023-05-17T00:42:27.351Z,99062.47
2023-05-17T00:45:15.487Z,99071.59
2023-05-17T00:48:03.475Z,99058.00
2023-05-17T00:50:53.501Z,99068.38
2023-05-17T00:53:41.718Z,99062.53
2023-05-17T00:56:29.709Z,99061.91
2023-05-17T00:59:18.620Z,99055.72
2023-05-17T01:02:07.336Z,99059.88
2023-05-17T01:04:55.514Z,99063.94
2023-05-17T01:07:44.960Z,99056.88
2023-05-17T01:10:42.381Z,99055.00
2023-05-17T01:13:43.730Z,99049.38
2023-05-17T01:16:37.048Z,99041.44
2023-05-17T01:19:53.422Z,99052.38
2023-05-17T01:22:52.394Z,99051.69
2023-05-17T01:25:54.085Z,99035.00
2023-05-17T01:28:46.411Z,99036.44
2023-05-17T01:31:35.039Z,99041.81
2023-05-17T01:34:27.094Z,99046.66
2023-05-17T01:37:15.160Z,98996.81
2023-05-17T01:40:03.492Z,99043.50
2023-05-17T01:42:58.048Z,99031.56
2023-05-17T01:45:54.968Z,99016.06
2023-05-17T01:48:50.791Z,99004.66
2023-05-17T01:51:47.491Z,99010.91
2023-05-17T01:54:40.488Z,99022.47
2023-05-17T01:57:33.676Z,99035.94
2023-05-17T02:00:25.350Z,99039.97
2023-05-17T02:03:20.597Z,99039.78
2023-05-17T02:06:09.013Z,99046.28
2023-05-17T02:08:58.814Z,99028.41
2023-05-17T02:11:46.814Z,99008.88
2023-05-17T02:14:34.868Z,99036.81
2023-05-17T02:17:23.108Z,99048.66
2023-05-17T02:20:13.130Z,99043.63
2023-05-17T02:23:01.061Z,99045.38
2023-05-17T02:25:49.139Z,99037.28
2023-05-17T02:28:37.223Z,99041.53
2023-05-17T02:31:26.946Z,99053.91
2023-05-17T02:34:14.970Z,99055.56
2023-05-17T02:37:04.386Z,99029.59
2023-05-17T02:39:52.412Z,99035.28
2023-05-17T02:42:40.476Z,99046.59
2023-05-17T02:45:28.541Z,99026.06
2023-05-17T02:48:16.724Z,99058.69
2023-05-17T02:51:04.821Z,99064.09
2023-05-17T02:53:54.149Z,99051.00
2023-05-17T02:56:42.138Z,99066.03
2023-05-17T02:59:30.092Z,99070.28
2023-05-17T03:02:18.206Z,99075.47
2023-05-17T03:05:07.052Z,99079.03
2023-05-17T03:07:55.036Z,99080.88
2023-05-17T03:10:44.415Z,99076.00
2023-05-17T03:13:32.390Z,99080.84
2023-05-17T03:16:20.785Z,99080.03
2023-05-17T03:19:08.980Z,99095.56
2023-05-17T03:21:57.073Z,99087.25
2023-05-17T03:24:45.124Z,99081.19
2023-05-17T03:27:34.664Z,99097.59
2023-05-17T03:30:22.769Z,99095.28
2023-05-17T03:33:10.809Z,99093.44
2023-05-17T03:35:58.901Z,99093.41
2023-05-17T03:38:46.864Z,99087.16
2023-05-17T03:41:35.047Z,99085.03
2023-05-17T03:44:24.434Z,99089.72
2023-05-17T03:47:12.428Z,99089.75
2023-05-17T03:50:00.723Z,99094.94
2023-05-17T03:52:48.750Z,99101.44
2023-05-17T03:55:36.770Z,99079.28
2023-05-17T03:58:24.806Z,99116.97
2023-05-17T04:01:14.142Z,99115.69
2023-05-17T04:04:04.593Z,99132.09
2023-05-17T04:06:52.641Z,99117.50
2023-05-17T04:09:40.616Z,99118.38
2023-05-17T04:12:28.802Z,99120.41
2023-05-17T04:15:16.787Z,99112.50
2023-05-17T04:18:06.668Z,99117.03
2023-05-17T04:20:56.327Z,99121.38
2023-05-17T04:23:44.295Z,99123.06
2023-05-17T04:26:32.278Z,99128.47
2023-05-17T04:29:20.641Z,99117.56
2023-05-17T04:32:09.921Z,99127.59
2023-05-17T04:34:59.304Z,99122.44
2023-05-17T04:37:47.330Z,99130.31
2023-05-17T04:40:35.375Z,99128.13
2023-05-17T04:43:23.385Z,99130.31
2023-05-17T04:46:11.659Z,99130.50
2023-05-17T04:49:00.362Z,99124.44
2023-05-17T04:51:50.267Z,99118.03
2023-05-17T04:54:38.220Z,99133.81
2023-05-17T04:57:26.316Z,99128.78
2023-05-17T05:00:15.443Z,99120.41
2023-05-17T05:03:05.062Z,99120.09
2023-05-17T05:05:53.196Z,99133.16
2023-05-17T05:08:42.582Z,99132.31
2023-05-17T05:11:31.526Z,99136.16
2023-05-17T05:14:19.476Z,99136.19
2023-05-17T05:17:07.547Z,99144.91
2023-05-17T05:19:55.646Z,99140.06
2023-05-17T05:22:43.655Z,99149.91
2023-05-17T05:25:33.266Z,99156.16
2023-05-17T05:28:21.252Z,99155.59
2023-05-17T05:31:09.246Z,99150.06
2023-05-17T05:33:58.142Z,99152.75
2023-05-17T05:36:46.268Z,99161.47
2023-05-17T05:39:34.224Z,99158.97
2023-05-17T05:42:23.621Z,99155.44
2023-05-17T05:45:13.401Z,99128.47
2023-05-17T05:48:01.649Z,99142.56
2023-05-17T05:50:49.806Z,99159.31
2023-05-17T05:53:37.846Z,99159.81
2023-05-17T05:56:27.671Z,99158.63
2023-05-17T05:59:17.079Z,99152.28
2023-05-17T06:02:05.367Z,99157.81
2023-05-17T06:04:53.344Z,99162.53
2023-05-17T06:07:41.322Z,99151.78
2023-05-17T06:10:29.555Z,99122.75
2023-05-17T06:13:17.826Z,99140.34
2023-05-17T06:16:07.711Z,99154.94
2023-05-17T06:18:56.387Z,99149.91
2023-05-17T06:21:44.803Z,99151.94
2023-05-17T06:24:33.259Z,99142.69
2023-05-17T06:27:21.439Z,99157.28
2023-05-17T06:30:10.770Z,99140.31
2023-05-17T06:33:00.332Z,99150.53
2023-05-17T06:38:42.549Z,99164.59
2023-05-17T06:41:31.576Z,99161.63
2023-05-17T06:44:19.572Z,99157.84
2023-05-17T06:47:07.654Z,99161.13
2023-05-17T06:49:57.056Z,99166.00
2023-05-17T06:52:45.198Z,99163.19
2023-05-17T06:55:33.221Z,99154.91
2023-05-17T06:58:21.181Z,99149.81
2023-05-17T07:01:09.200Z,99162.50
2023-05-17T07:03:57.475Z,99172.03
2023-05-17T07:06:46.999Z,99171.19
2023-05-17T07:09:34.993Z,99162.63
2023-05-17T07:12:23.047Z,99149.03
2023-05-17T07:15:12.074Z,99161.75
2023-05-17T07:18:00.923Z,99162.47
2023-05-17T07:20:49.053Z,99149.03
2023-05-17T07:23:38.489Z,99156.88
2023-05-17T07:26:26.692Z,99159.81
2023-05-17T07:29:14.666Z,99164.78
2023-05-17T07:32:02.744Z,99144.84
2023-05-17T07:34:50.732Z,99169.84
2023-05-17T07:37:38.694Z,99170.19
2023-05-17T07:40:28.051Z,99120.41
2023-05-17T07:43:16.210Z,99168.00
2023-05-17T07:46:04.204Z,99160.09
2023-05-17T07:48:52.475Z,99159.94
2023-05-17T07:51:40.675Z,99168.50
2023-05-17T07:54:28.829Z,99171.81
2023-05-17T07:57:18.669Z,99174.34
2023-05-17T08:00:08.876Z,99163.66
2023-05-17T08:02:57.844Z,99186.81
2023-05-17T08:05:45.926Z,99187.78
2023-05-17T08:08:34.027Z,99179.91
2023-05-17T08:11:22.023Z,99183.72
2023-05-17T08:14:11.418Z,99158.84
2023-05-17T08:16:59.479Z,99172.53
2023-05-17T08:19:47.503Z,99177.38
2023-05-17T08:22:35.524Z,99181.22
2023-05-17T08:25:23.641Z,99190.47
2023-05-17T08:28:11.625Z,99184.78
2023-05-17T08:31:02.102Z,99175.03
2023-05-17T08:33:50.150Z,99169.66
2023-05-17T08:36:38.333Z,99171.38
2023-05-17T08:39:26.481Z,99150.03
2023-05-17T08:42:16.106Z,99165.31
2023-05-17T08:45:04.565Z,99173.72
2023-05-17T08:47:55.019Z,99168.03
2023-05-17T08:50:43.921Z,99166.00
2023-05-17T08:53:32.004Z,99165.66
2023-05-17T08:56:23.133Z,99146.84
2023-05-17T08:59:11.776Z,99169.84
2023-05-17T09:02:00.634Z,99149.22
2023-05-17T09:04:55.895Z,99179.91
2023-05-17T09:07:44.123Z,99181.28
2023-05-17T09:10:32.156Z,99178.75
2023-05-17T09:13:20.213Z,99181.75
2023-05-17T09:16:15.136Z,99187.13
2023-05-17T09:19:05.569Z,99187.66
2023-05-17T09:21:56.924Z,99179.25
2023-05-17T09:24:45.025Z,99189.16
2023-05-17T09:27:33.409Z,99176.06
2023-05-17T09:30:28.102Z,99198.69
2023-05-17T09:33:18.571Z,99196.03
2023-05-17T09:36:17.280Z,99182.25
2023-05-17T09:39:12.146Z,99202.91
2023-05-17T09:42:01.163Z,99187.31
2023-05-17T09:44:51.095Z,99154.56
2023-05-17T09:47:39.054Z,99171.75
2023-05-17T09:50:27.137Z,99177.72
2023-05-17T09:53:26.104Z,99182.94
2023-05-17T09:56:17.486Z,99177.72
2023-05-17T09:59:11.794Z,99188.31
2023-05-17T10:02:01.814Z,99187.66
2023-05-17T10:04:51.797Z,99188.47
2023-05-17T10:07:40.079Z,99192.50
2023-05-17T10:10:28.837Z,99185.47
2023-05-17T10:13:22.290Z,99155.63
2023-05-17T10:16:11.008Z,99160.97
2023-05-17T10:18:59.282Z,99154.28
2023-05-17T10:21:49.313Z,99133.81
2023-05-17T10:24:38.260Z,99139.34
2023-05-17T10:27:27.229Z,99126.91
2023-05-17T10:30:17.642Z,99132.63
2023-05-17T10:33:06.029Z,99115.34
2023-05-17T10:35:56.093Z,99123.56
2023-05-17T10:38:44.185Z,99115.66
2023-05-17T10:41:35.059Z,99118.81
2023-05-17T10:44:23.858Z,99116.00
2023-05-17T10:47:15.455Z,99106.59
2023-05-17T10:50:10.272Z,99125.69
2023-05-17T10:53:00.670Z,99112.75
2023-05-17T10:55:48.660Z,99099.81
2023-05-17T10:58:36.645Z,99109.44
2023-05-17T11:02:09.207Z,99091.13
2023-05-17T11:05:00.483Z,99096.00
2023-05-17T11:07:49.898Z,99103.56
2023-05-17T11:10:38.165Z,99107.72
2023-05-17T11:13:28.491Z,99095.81
2023-05-17T11:16:18.355Z,99097.50
2023-05-17T11:19:11.614Z,99101.25
2023-05-17T11:22:12.148Z,99113.44
2023-05-17T11:25:02.577Z,99100.19
2023-05-17T11:27:52.769Z,99030.19
2023-05-17T11:30:51.301Z,99118.50
2023-05-17T11:33:40.827Z,99115.16
2023-05-17T11:36:28.841Z,99111.19
2023-05-17T11:39:21.674Z,99106.28
2023-05-17T11:42:26.308Z,99108.34
2023-05-17T11:45:14.474Z,99113.84
2023-05-17T11:48:02.702Z,99099.44
2023-05-17T11:50:52.388Z,99087.19
2023-05-17T11:53:41.477Z,99102.78
2023-05-17T11:59:30.393Z,99105.75
2023-05-17T12:02:28.684Z,99106.88
2023-05-17T12:05:21.270Z,99101.56
2023-05-17T12:08:09.290Z,99077.66
2023-05-17T12:10:57.646Z,99096.94
2023-05-17T12:13:49.172Z,99098.19
2023-05-17T12:16:38.005Z,99093.00
2023-05-17T12:19:28.044Z,99095.66
2023-05-17T12:22:16.127Z,99097.59
2023-05-17T12:25:04.140Z,99096.63
2023-05-17T12:27:52.211Z,99083.75
2023-05-17T12:30:41.840Z,99086.09
2023-05-17T12:33:32.320Z,99079.47
2023-05-17T12:36:20.571Z,99073.09
2023-05-17T12:39:10.151Z,99069.63
2023-05-17T12:41:58.327Z,99065.06
2023-05-17T12:44:46.496Z,99059.06
2023-05-17T12:47:36.031Z,99051.72
2023-05-17T12:50:27.543Z,99059.69
2023-05-17T12:53:15.843Z,99058.63
2023-05-17T12:56:03.983Z,99063.00
2023-05-17T12:59:12.099Z,99058.09
2023-05-17T13:02:00.789Z,99068.44
2023-05-17T13:04:50.522Z,99046.81
2023-05-17T13:07:38.535Z,99062.91
2023-05-17T13:10:28.843Z,99063.78
2023-05-17T13:13:20.534Z,99048.94
2023-05-17T13:16:09.319Z,99045.63
2023-05-17T13:18:57.474Z,99034.16
2023-05-17T13:21:46.952Z,99027.47
2023-05-17T13:24:36.288Z,99041.16
2023-05-17T13:27:24.325Z,99043.28
2023-05-17T13:30:12.968Z,99035.53
2023-05-17T13:33:01.110Z,99043.53
2023-05-17T13:35:49.212Z,99034.50
2023-05-17T13:38:38.642Z,99033.63
2023-05-17T13:41:26.695Z,99043.13
2023-05-17T13:44:14.762Z,99042.03
2023-05-17T13:47:02.910Z,99031.06
2023-05-17T13:49:50.941Z,99007.97
2023-05-17T13:52:38.978Z,99030.81
2023-05-17T13:55:28.551Z,99027.00
2023-05-17T13:58:18.007Z,99029.72
2023-05-17T14:01:06.600Z,99038.44
2023-05-17T14:03:55.315Z,99037.94
2023-05-17T14:06:44.353Z,99041.72
2023-05-17T14:09:34.636Z,99039.66
2023-05-17T14:12:24.105Z,99045.38
2023-05-17T14:15:12.568Z,99013.25
2023-05-17T14:18:00.729Z,99040.06
2023-05-17T14:20:48.752Z,99035.09
2023-05-17T14:23:36.849Z,99020.31
2023-05-17T14:26:24.902Z,99029.56
2023-05-17T14:29:14.453Z,99029.91
2023-05-17T14:32:02.505Z,99031.88
2023-05-17T14:34:50.806Z,98954.69
2023-05-17T14:37:38.809Z,99019.19
2023-05-17T14:40:26.772Z,99027.22
2023-05-17T14:43:14.835Z,99028.03
2023-05-17T14:46:04.238Z,99032.72
2023-05-17T14:48:52.718Z,99031.75
2023-05-17T14:51:41.253Z,99033.75
2023-05-17T14:54:31.165Z,99028.38
2023-05-17T14:57:21.272Z,99003.25
2023-05-17T15:00:11.300Z,99018.63
2023-05-17T15:03:01.198Z,98980.97
2023-05-17T15:05:54.764Z,99002.41
2023-05-17T15:08:42.836Z,99040.47
2023-05-17T15:11:31.392Z,99031.59
2023-05-17T15:14:22.526Z,99022.91
2023-05-17T15:17:10.485Z,99000.25
2023-05-17T15:19:59.991Z,99019.97
2023-05-17T15:22:48.312Z,99027.03
2023-05-17T15:25:39.116Z,99016.31
2023-05-17T15:28:27.254Z,99019.81
2023-05-17T15:31:15.223Z,99021.31
2023-05-17T15:34:03.266Z,99014.94
2023-05-17T15:36:52.712Z,99009.78
2023-05-17T15:39:41.239Z,99023.31
2023-05-17T15:42:29.260Z,99019.97
2023-05-17T15:45:17.260Z,99024.19
2023-05-17T15:48:06.896Z,99035.09
2023-05-17T15:50:54.992Z,99029.19
2023-05-17T15:53:44.415Z,99041.53
2023-05-17T15:56:32.369Z,99041.50
2023-05-17T15:59:20.396Z,99051.53
2023-05-17T16:02:08.465Z,99056.25
2023-05-17T16:04:56.480Z,99054.06
2023-05-17T16:07:44.440Z,99052.56
2023-05-17T16:10:33.848Z,99038.50
2023-05-17T16:13:21.892Z,99030.44
2023-05-17T16:16:10.697Z,99022.03
2023-05-17T16:18:58.741Z,99022.22
2023-05-17T16:21:50.398Z,99020.84
2023-05-17T16:24:38.826Z,99029.72
2023-05-17T16:27:28.332Z,98995.09
2023-05-17T16:30:17.010Z,99029.09
2023-05-17T16:33:06.905Z,99016.03
2023-05-17T16:35:56.461Z,99023.09
2023-05-17T16:38:44.670Z,99017.38
2023-05-17T16:41:33.529Z,99023.91
2023-05-17T16:44:23.271Z,99022.38
2023-05-17T16:47:11.378Z,99031.09
2023-05-17T16:50:01.409Z,99026.94
2023-05-17T16:52:49.464Z,99008.69
2023-05-17T16:55:37.593Z,99003.25
2023-05-17T16:58:26.153Z,99016.03
2023-05-17T17:01:16.104Z,99025.09
2023-05-17T17:04:04.483Z,99003.00
2023-05-17T17:06:52.594Z,99026.13
2023-05-17T17:09:40.584Z,99048.78
2023-05-17T17:12:28.595Z,99043.56
2023-05-17T17:15:16.944Z,99056.66
2023-05-17T17:18:06.676Z,99058.34
2023-05-17T17:20:54.976Z,99007.91
2023-05-17T17:23:43.195Z,99078.91
2023-05-17T17:26:31.278Z,99074.75
2023-05-17T17:29:19.281Z,99068.03
2023-05-17T17:32:08.607Z,99069.09
2023-05-17T17:34:58.108Z,99079.66
2023-05-17T17:37:46.192Z,99078.81
2023-05-17T17:40:34.247Z,99078.84
2023-05-17T17:43:22.466Z,99080.50
2023-05-17T17:46:10.673Z,99081.50
2023-05-17T17:48:58.751Z,99079.00
2023-05-17T17:51:48.158Z,99067.75
2023-05-17T17:54:36.127Z,99065.84
2023-05-17T17:57:24.066Z,99074.38
2023-05-17T18:00:16.151Z,99064.72
2023-05-17T18:03:04.242Z,99073.97
2023-05-17T18:05:52.238Z,99065.41
2023-05-17T18:08:43.663Z,99069.44
2023-05-17T18:11:31.712Z,99069.59
2023-05-17T18:14:19.734Z,99083.88
2023-05-17T18:17:08.219Z,99082.19
2023-05-17T18:19:56.307Z,99092.88
2023-05-17T18:22:44.379Z,99091.25
2023-05-17T18:25:34.111Z,99089.91
2023-05-17T18:28:33.898Z,99089.25
2023-05-17T18:31:29.710Z,99092.44
2023-05-17T18:34:19.370Z,99092.28
2023-05-17T18:37:07.413Z,99091.94
2023-05-17T18:39:55.505Z,99093.75
2023-05-17T18:42:44.953Z,99094.59
2023-05-17T18:45:36.331Z,99095.94
2023-05-17T18:48:25.290Z,99099.81
2023-05-17T18:51:15.451Z,99102.66
2023-05-17T18:54:03.854Z,99115.56
2023-05-17T18:56:51.916Z,99118.22
2023-05-17T18:59:41.284Z,99123.13
2023-05-17T19:02:29.320Z,99125.09
2023-05-17T19:05:17.435Z,99118.06
2023-05-17T19:08:05.604Z,99116.56
2023-05-17T19:10:53.659Z,99114.38
2023-05-17T19:13:42.030Z,99109.00
2023-05-17T19:16:31.979Z,99109.69
2023-05-17T19:19:22.273Z,99111.53
2023-05-17T19:22:11.236Z,99112.88
2023-05-17T19:25:00.339Z,99108.03
2023-05-17T19:27:48.457Z,99102.31
2023-05-17T19:30:37.054Z,99107.69
2023-05-17T19:33:26.887Z,99114.06
2023-05-17T19:36:15.098Z,99114.72
2023-05-17T19:39:03.610Z,99087.22
2023-05-17T19:41:51.895Z,99107.00
2023-05-17T19:44:40.051Z,99112.53
2023-05-17T19:47:28.421Z,99109.16
2023-05-17T19:50:18.140Z,99096.44
2023-05-17T19:53:06.898Z,99096.09
2023-05-17T19:55:55.705Z,99097.94
2023-05-17T19:58:43.830Z,99096.59
2023-05-17T20:01:32.289Z,99100.13
2023-05-17T20:04:20.688Z,99104.31
2023-05-17T20:07:10.252Z,99100.78
2023-05-17T20:09:58.449Z,99094.25
2023-05-17T20:12:46.830Z,99095.75
2023-05-17T20:15:35.033Z,99089.91
2023-05-17T20:18:23.285Z,99100.06
2023-05-17T20:21:12.852Z,99095.59
2023-05-17T20:24:04.068Z,99099.53
2023-05-17T20:26:52.156Z,99092.91
2023-05-17T20:29:41.097Z,99099.41
2023-05-17T20:32:29.291Z,99093.22
2023-05-17T20:35:17.396Z,99103.78
2023-05-17T20:38:05.394Z,99100.25
2023-05-17T20:40:55.594Z,99096.22
2023-05-17T20:43:46.325Z,99107.31
2023-05-17T20:46:35.597Z,99101.28
2023-05-17T20:49:23.660Z,99107.06
2023-05-17T20:52:11.675Z,99105.09
2023-05-17T20:54:59.608Z,99106.81
2023-05-17T20:57:49.015Z,99103.47
2023-05-17T21:00:38.037Z,99097.22
2023-05-17T21:03:28.222Z,99110.00
2023-05-17T21:06:16.507Z,99106.78
2023-05-17T21:09:04.587Z,99102.22
2023-05-17T21:11:53.106Z,99106.47
2023-05-17T21:14:42.543Z,99106.47
2023-05-17T21:17:30.545Z,99114.81
2023-05-17T21:20:18.816Z,99109.16
2023-05-17T21:23:06.873Z,99111.69
2023-05-17T21:25:54.903Z,99117.56
2023-05-17T21:28:42.924Z,99114.66
2023-05-17T21:31:32.809Z,99111.28
2023-05-17T21:34:20.861Z,99109.69
2023-05-17T21:37:08.836Z,99110.34
2023-05-17T21:39:56.792Z,99108.19
2023-05-17T21:42:44.812Z,99108.59
2023-05-17T21:45:32.814Z,99107.81
2023-05-17T21:48:22.210Z,99111.63
2023-05-17T21:51:10.213Z,99105.91
2023-05-17T21:53:58.294Z,99115.28
2023-05-17T21:56:46.335Z,99118.13
2023-05-17T21:59:34.521Z,99097.03
2023-05-17T22:02:22.585Z,99112.31
2023-05-17T22:05:12.508Z,99112.66
2023-05-17T22:08:00.934Z,99118.66
2023-05-17T22:10:50.264Z,99117.97
2023-05-17T22:13:38.388Z,99105.75
2023-05-17T22:16:26.525Z,99107.56
2023-05-17T22:19:14.610Z,99107.25
2023-05-17T22:22:03.993Z,99102.09
2023-05-17T22:24:54.028Z,99100.06
2023-05-17T22:27:42.072Z,99097.41
2023-05-17T22:30:30.181Z,99085.03
2023-05-17T22:33:18.302Z,99087.56
2023-05-17T22:36:06.675Z,99077.78
2023-05-17T22:38:56.780Z,99073.06
2023-05-17T22:41:44.775Z,99082.19
2023-05-17T22:44:33.812Z,99080.34
2023-05-17T22:47:23.039Z,99079.25
2023-05-17T22:50:12.180Z,99081.97
2023-05-17T22:53:01.144Z,99077.78
2023-05-17T22:55:50.658Z,99085.97
2023-05-17T22:58:38.692Z,99068.88
2023-05-17T23:01:26.828Z,99039.75
2023-05-17T23:04:14.880Z,99064.38
2023-05-17T23:07:03.549Z,99066.72
2023-05-17T23:09:53.825Z,99065.56
2023-05-17T23:12:43.180Z,99060.38
2023-05-17T23:15:34.495Z,99053.19
2023-05-17T23:18:22.486Z,99048.25
2023-05-17T23:21:12.127Z,99034.16
2023-05-17T23:24:00.925Z,99036.84
2023-05-17T23:26:48.922Z,99026.78
2023-05-17T23:29:41.482Z,99033.50
2023-05-17T23:32:32.440Z,99028.44
2023-05-17T23:35:20.555Z,99030.81
2023-05-17T23:38:08.529Z,99035.69
2023-05-17T23:40:58.295Z,99016.03
2023-05-17T23:43:46.894Z,99024.59
2023-05-17T23:46:36.523Z,99013.53
2023-05-17T23:49:24.633Z,99011.56
2023-05-17T23:52:12.649Z,99018.72
2023-05-17T23:55:01.667Z,99009.03
2023-05-17T23:57:49.657Z,99010.03
